createdAt,value
2018-03-23T00:01:55.503Z,73.35
2018-03-23T00:04:23.015Z,72.92
2018-03-23T00:06:50.526Z,73.10
2018-03-23T00:09:18.038Z,73.34
2018-03-23T00:11:45.583Z,73.00
2018-03-23T00:14:13.103Z,73.33
2018-03-23T00:16:40.624Z,73.45
2018-03-23T00:19:08.181Z,74.01
2018-03-23T00:21:35.679Z,73.85
2018-03-23T00:24:03.212Z,73.90
2018-03-23T00:26:30.723Z,74.09
2018-03-23T00:28:58.275Z,74.23
2018-03-23T00:31:25.800Z,73.77
2018-03-23T00:33:53.320Z,74.79
2018-03-23T00:36:20.863Z,74.73
2018-03-23T00:38:48.384Z,75.01
2018-03-23T00:41:15.917Z,74.54
2018-03-23T00:43:43.435Z,74.27
2018-03-23T00:46:10.950Z,74.07
2018-03-23T00:48:38.476Z,73.77
2018-03-23T00:51:05.998Z,73.63
2018-03-23T00:53:33.539Z,73.65
2018-03-23T00:56:01.054Z,73.01
2018-03-23T00:58:28.579Z,73.24
2018-03-23T01:00:56.100Z,72.84
2018-03-23T01:03:23.616Z,72.52
2018-03-23T01:05:51.159Z,72.55
2018-03-23T01:08:18.692Z,71.42
2018-03-23T01:10:46.230Z,71.36
2018-03-23T01:13:13.751Z,71.54
2018-03-23T01:15:41.374Z,70.53
2018-03-23T01:18:08.898Z,71.38
2018-03-23T01:20:36.428Z,71.34
2018-03-23T01:23:03.970Z,71.05
2018-03-23T01:25:31.723Z,70.62
2018-03-23T01:27:59.240Z,70.40
2018-03-23T01:30:26.795Z,70.11
2018-03-23T01:32:54.312Z,70.30
2018-03-23T01:35:21.823Z,69.95
2018-03-23T01:37:49.351Z,70.42
2018-03-23T01:40:16.866Z,71.37
2018-03-23T01:42:44.391Z,71.44
2018-03-23T01:45:11.907Z,71.38
2018-03-23T01:47:39.784Z,70.73
2018-03-23T01:50:07.313Z,70.99
2018-03-23T01:52:34.835Z,70.72
2018-03-23T01:55:02.636Z,70.34
2018-03-23T01:57:30.155Z,70.17
2018-03-23T01:59:57.672Z,69.74
2018-03-23T02:02:25.465Z,70.01
2018-03-23T02:04:53.014Z,70.35
2018-03-23T02:07:20.535Z,70.15
2018-03-23T02:09:48.056Z,69.99
2018-03-23T02:12:15.576Z,69.66
2018-03-23T02:14:43.086Z,70.05
2018-03-23T02:17:10.608Z,69.82
2018-03-23T02:19:38.129Z,70.59
2018-03-23T02:22:05.658Z,70.43
2018-03-23T02:24:33.170Z,70.94
2018-03-23T02:27:00.690Z,71.95
2018-03-23T02:29:28.235Z,72.06
2018-03-23T02:31:55.751Z,72.45
2018-03-23T02:34:23.267Z,72.12
2018-03-23T02:36:50.783Z,71.08
2018-03-23T02:39:18.303Z,70.01
2018-03-23T02:41:45.849Z,69.01
2018-03-23T02:44:13.379Z,69.67
2018-03-23T02:46:40.907Z,69.09
2018-03-23T02:49:08.426Z,68.67
2018-03-23T02:51:35.951Z,68.91
2018-03-23T02:54:03.474Z,68.50
2018-03-23T02:56:30.985Z,67.68
2018-03-23T02:58:58.523Z,66.65
2018-03-23T03:01:26.059Z,67.46
2018-03-23T03:03:53.581Z,67.08
2018-03-23T03:06:21.118Z,66.80
2018-03-23T03:08:48.632Z,67.46
2018-03-23T03:11:16.176Z,67.62
2018-03-23T03:13:43.699Z,67.33
2018-03-23T03:16:12.014Z,67.04
2018-03-23T03:18:39.526Z,67.78
2018-03-23T03:21:07.048Z,67.18
2018-03-23T03:23:34.562Z,67.26
2018-03-23T03:26:02.087Z,67.16
2018-03-23T03:28:29.655Z,67.55
2018-03-23T03:30:57.182Z,67.56
2018-03-23T03:33:24.699Z,67.87
2018-03-23T03:35:52.352Z,67.96
2018-03-23T03:38:19.878Z,67.23
2018-03-23T03:40:47.398Z,67.20
2018-03-23T03:43:15.666Z,66.93
2018-03-23T03:45:43.190Z,67.16
2018-03-23T03:48:10.739Z,66.93
2018-03-23T03:50:38.590Z,66.40
2018-03-23T03:53:06.112Z,66.58
2018-03-23T03:55:33.630Z,66.17
2018-03-23T03:58:01.142Z,65.49
2018-03-23T04:00:28.742Z,65.08
2018-03-23T04:02:56.218Z,66.05
2018-03-23T04:05:23.735Z,66.43
2018-03-23T04:07:51.251Z,65.90
2018-03-23T04:10:18.785Z,65.62
2018-03-23T04:12:46.320Z,64.58
2018-03-23T04:15:13.841Z,63.99
2018-03-23T04:17:41.353Z,62.39
2018-03-23T04:20:08.927Z,61.53
2018-03-23T04:22:36.417Z,61.61
2018-03-23T04:25:03.970Z,60.97
2018-03-23T04:27:31.482Z,61.40
2018-03-23T04:29:59.002Z,61.58
2018-03-23T04:32:26.514Z,61.37
2018-03-23T04:34:54.026Z,60.83
2018-03-23T04:37:21.546Z,60.49
2018-03-23T04:39:49.058Z,61.09
2018-03-23T04:42:16.613Z,60.71
2018-03-23T04:44:44.126Z,60.00
2018-03-23T04:47:11.643Z,61.29
2018-03-23T04:49:39.170Z,61.88
2018-03-23T04:52:06.733Z,61.93
2018-03-23T04:54:34.251Z,62.06
2018-03-23T04:57:02.051Z,61.56
2018-03-23T04:59:29.583Z,61.48
2018-03-23T05:01:57.131Z,60.86
2018-03-23T05:04:24.672Z,60.41
2018-03-23T05:06:52.188Z,60.08
2018-03-23T05:09:19.703Z,60.44
2018-03-23T05:11:47.247Z,61.03
2018-03-23T05:14:14.792Z,61.48
2018-03-23T05:16:42.310Z,61.10
2018-03-23T05:19:09.824Z,60.73
2018-03-23T05:21:37.347Z,60.65
2018-03-23T05:24:04.890Z,60.60
2018-03-23T05:26:32.405Z,60.57
2018-03-23T05:28:59.950Z,60.27
2018-03-23T05:31:27.498Z,60.92
2018-03-23T05:33:55.006Z,60.90
2018-03-23T05:36:22.539Z,60.32
2018-03-23T05:38:50.056Z,60.43
2018-03-23T05:41:17.584Z,60.15
2018-03-23T05:43:45.118Z,59.77
2018-03-23T05:46:12.643Z,60.10
2018-03-23T05:48:40.192Z,57.59
2018-03-23T05:51:07.718Z,57.08
2018-03-23T05:53:35.246Z,56.49
2018-03-23T05:56:02.772Z,54.76
2018-03-23T05:58:30.302Z,56.21
2018-03-23T06:00:57.834Z,56.99
2018-03-23T06:03:25.352Z,56.55
2018-03-23T06:05:52.886Z,56.54
2018-03-23T06:08:20.420Z,57.32
2018-03-23T06:10:47.950Z,56.27
2018-03-23T06:13:15.470Z,55.94
2018-03-23T06:15:43.028Z,56.99
2018-03-23T06:18:10.610Z,56.76
2018-03-23T06:20:38.119Z,56.17
2018-03-23T06:23:05.638Z,56.77
2018-03-23T06:25:33.159Z,57.02
2018-03-23T06:28:00.685Z,55.78
2018-03-23T06:30:28.218Z,56.36
2018-03-23T06:32:55.734Z,53.50
2018-03-23T06:35:23.282Z,53.29
2018-03-23T06:37:50.799Z,53.02
2018-03-23T06:40:18.314Z,52.51
2018-03-23T06:42:45.828Z,51.54
2018-03-23T06:45:13.347Z,52.17
2018-03-23T06:47:40.858Z,52.60
2018-03-23T06:50:08.382Z,53.27
2018-03-23T06:52:35.934Z,53.16
2018-03-23T06:55:03.450Z,53.48
2018-03-23T06:57:30.977Z,54.57
2018-03-23T06:59:58.501Z,52.55
2018-03-23T07:02:26.050Z,53.28
2018-03-23T07:04:53.571Z,53.39
2018-03-23T07:07:21.098Z,52.41
2018-03-23T07:09:48.615Z,52.41
2018-03-23T07:12:16.164Z,51.12
2018-03-23T07:14:43.682Z,51.23
2018-03-23T07:17:11.205Z,52.29
2018-03-23T07:19:38.749Z,51.25
2018-03-23T07:22:06.275Z,52.63
2018-03-23T07:24:33.799Z,52.41
2018-03-23T07:27:01.323Z,52.10
2018-03-23T07:29:28.850Z,50.50
2018-03-23T07:31:56.370Z,51.63
2018-03-23T07:34:23.888Z,53.21
2018-03-23T07:36:51.446Z,51.83
2018-03-23T07:39:18.982Z,52.22
2018-03-23T07:41:46.513Z,50.73
2018-03-23T07:44:14.048Z,51.77
2018-03-23T07:46:41.563Z,51.32
2018-03-23T07:49:09.078Z,51.99
2018-03-23T07:51:36.598Z,51.75
2018-03-23T07:54:04.122Z,49.75
2018-03-23T07:56:31.651Z,49.80
2018-03-23T07:58:59.203Z,50.97
2018-03-23T08:01:26.729Z,51.87
2018-03-23T08:03:54.246Z,52.56
2018-03-23T08:06:21.805Z,51.52
2018-03-23T08:08:49.326Z,51.49
2018-03-23T08:11:16.855Z,52.89
2018-03-23T08:13:44.380Z,52.31
2018-03-23T08:16:11.909Z,51.57
2018-03-23T08:18:39.430Z,53.30
2018-03-23T08:21:06.955Z,57.26
2018-03-23T08:23:34.508Z,55.51
2018-03-23T08:26:02.052Z,53.03
2018-03-23T08:28:29.607Z,51.57
2018-03-23T08:30:57.168Z,52.00
2018-03-23T08:33:24.698Z,55.14
2018-03-23T08:35:52.227Z,56.56
2018-03-23T08:38:19.743Z,55.42
2018-03-23T08:40:47.262Z,49.77
2018-03-23T08:43:14.786Z,50.18
2018-03-23T08:45:42.306Z,50.00
2018-03-23T08:48:09.826Z,51.87
2018-03-23T08:50:37.342Z,54.12
2018-03-23T08:53:04.879Z,50.65
2018-03-23T08:55:32.398Z,52.83
2018-03-23T08:57:59.920Z,52.38
2018-03-23T09:00:27.475Z,49.45
2018-03-23T09:02:54.994Z,52.38
2018-03-23T09:05:22.511Z,53.11
2018-03-23T09:07:50.026Z,51.63
2018-03-23T09:10:17.555Z,51.30
2018-03-23T09:12:45.070Z,51.83
2018-03-23T09:15:12.590Z,50.08
2018-03-23T09:17:40.123Z,55.48
2018-03-23T09:20:07.644Z,53.53
2018-03-23T09:22:35.163Z,51.21
2018-03-23T09:25:02.686Z,55.10
2018-03-23T09:27:30.203Z,55.50
2018-03-23T09:29:57.727Z,52.44
2018-03-23T09:32:25.249Z,53.08
2018-03-23T09:34:52.771Z,55.34
2018-03-23T09:37:20.437Z,52.48
2018-03-23T09:39:47.930Z,54.57
2018-03-23T09:42:15.447Z,52.54
2018-03-23T09:44:42.966Z,54.36
2018-03-23T09:47:10.475Z,53.76
2018-03-23T09:49:37.999Z,56.17
2018-03-23T09:52:05.514Z,55.22
2018-03-23T09:54:33.031Z,53.48
2018-03-23T09:57:00.547Z,51.96
2018-03-23T09:59:28.084Z,53.60
2018-03-23T10:01:55.598Z,53.10
2018-03-23T10:04:23.120Z,53.19
2018-03-23T10:06:50.682Z,54.60
2018-03-23T10:09:18.195Z,54.11
2018-03-23T10:11:45.710Z,53.91
2018-03-23T10:14:13.222Z,55.45
2018-03-23T10:16:40.742Z,54.00
2018-03-23T10:19:08.271Z,54.45
2018-03-23T10:21:35.915Z,51.87
2018-03-23T10:24:03.419Z,51.54
2018-03-23T10:26:30.932Z,50.50
2018-03-23T10:28:58.540Z,51.01
2018-03-23T10:31:26.042Z,55.52
2018-03-23T10:33:53.561Z,51.08
2018-03-23T10:36:21.074Z,52.46
2018-03-23T10:38:48.586Z,54.09
2018-03-23T10:41:16.094Z,54.31
2018-03-23T10:43:43.634Z,51.95
2018-03-23T10:46:11.150Z,51.62
2018-03-23T10:48:38.667Z,51.78
2018-03-23T10:51:06.212Z,53.05
2018-03-23T10:53:33.760Z,53.14
2018-03-23T10:56:01.275Z,51.66
2018-03-23T10:58:28.799Z,54.44
2018-03-23T11:01:01.887Z,53.77
2018-03-23T11:03:29.402Z,54.66
2018-03-23T11:05:57.815Z,53.52
2018-03-23T11:08:25.332Z,55.27
2018-03-23T11:10:52.846Z,55.30
2018-03-23T11:13:20.374Z,55.86
2018-03-23T11:15:47.901Z,52.90
2018-03-23T11:18:15.423Z,51.58
2018-03-23T11:20:42.934Z,53.92
2018-03-23T11:23:10.490Z,52.35
2018-03-23T11:25:38.006Z,54.57
2018-03-23T11:28:05.519Z,53.80
2018-03-23T11:30:33.051Z,57.50
2018-03-23T11:33:00.572Z,54.52
2018-03-23T11:35:28.167Z,57.22
2018-03-23T11:37:55.683Z,55.11
2018-03-23T11:40:23.199Z,54.80
2018-03-23T11:42:50.710Z,56.19
2018-03-23T11:45:18.243Z,56.65
2018-03-23T11:47:45.757Z,56.07
2018-03-23T11:50:13.271Z,56.47
2018-03-23T11:52:40.809Z,56.15
2018-03-23T11:55:08.320Z,59.41
2018-03-23T11:57:35.840Z,55.76
2018-03-23T12:00:10.572Z,57.02
2018-03-23T12:02:38.134Z,56.53
2018-03-23T12:05:05.665Z,55.99
2018-03-23T12:07:33.210Z,58.08
2018-03-23T12:10:00.747Z,54.55
2018-03-23T12:12:28.323Z,54.55
2018-03-23T12:14:55.847Z,55.78
2018-03-23T12:17:23.386Z,59.04
2018-03-23T12:19:50.898Z,55.67
2018-03-23T12:22:18.433Z,56.31
2018-03-23T12:24:45.957Z,55.40
2018-03-23T12:27:13.476Z,55.93
2018-03-23T12:29:40.994Z,56.11
2018-03-23T12:32:08.517Z,57.01
2018-03-23T12:34:36.042Z,58.14
2018-03-23T12:37:03.613Z,57.39
2018-03-23T12:39:31.123Z,59.22
2018-03-23T12:41:58.668Z,60.25
2018-03-23T12:44:26.192Z,58.43
2018-03-23T12:46:53.736Z,60.26
2018-03-23T12:49:21.274Z,59.95
2018-03-23T12:51:48.790Z,57.35
2018-03-23T12:54:16.326Z,59.20
2018-03-23T12:56:44.314Z,58.14
2018-03-23T12:59:11.856Z,58.41
2018-03-23T13:01:39.415Z,57.01
2018-03-23T13:04:06.910Z,56.03
2018-03-23T13:06:34.454Z,57.06
2018-03-23T13:09:01.975Z,58.76
2018-03-23T13:11:30.359Z,60.03
2018-03-23T13:13:57.904Z,59.04
2018-03-23T13:16:25.419Z,60.84
2018-03-23T13:18:52.931Z,60.32
2018-03-23T13:21:20.456Z,58.02
2018-03-23T13:23:47.991Z,57.66
2018-03-23T13:26:15.512Z,58.37
2018-03-23T13:28:43.032Z,56.81
2018-03-23T13:31:10.550Z,58.52
2018-03-23T13:33:38.064Z,59.24
2018-03-23T13:36:05.610Z,59.08
2018-03-23T13:38:33.143Z,61.04
2018-03-23T13:41:00.696Z,59.75
2018-03-23T13:43:28.231Z,58.88
2018-03-23T13:45:55.789Z,57.42
2018-03-23T13:48:23.356Z,58.01
2018-03-23T13:50:50.882Z,58.10
2018-03-23T13:53:18.459Z,59.53
2018-03-23T13:55:46.001Z,62.88
2018-03-23T13:58:13.566Z,61.39
2018-03-23T14:00:46.649Z,58.19
2018-03-23T14:03:14.234Z,58.79
2018-03-23T14:05:41.792Z,59.19
2018-03-23T14:08:09.318Z,62.14
2018-03-23T14:10:36.838Z,62.85
2018-03-23T14:13:04.380Z,59.23
2018-03-23T14:15:31.930Z,61.44
2018-03-23T14:17:59.463Z,61.03
2018-03-23T14:20:26.986Z,60.32
2018-03-23T14:22:54.512Z,62.64
2018-03-23T14:25:22.044Z,62.61
2018-03-23T14:27:49.562Z,60.63
2018-03-23T14:30:18.079Z,62.30
2018-03-23T14:32:45.618Z,64.13
2018-03-23T14:35:13.148Z,62.05
2018-03-23T14:37:40.681Z,61.62
2018-03-23T14:40:08.224Z,63.47
2018-03-23T14:42:35.755Z,63.97
2018-03-23T14:45:03.287Z,61.80
2018-03-23T14:47:30.832Z,60.20
2018-03-23T14:49:58.355Z,62.31
2018-03-23T14:52:26.664Z,62.07
2018-03-23T14:54:54.164Z,60.37
2018-03-23T14:57:21.707Z,57.91
2018-03-23T14:59:50.247Z,60.25
2018-03-23T15:02:17.767Z,59.48
2018-03-23T15:04:45.293Z,60.38
2018-03-23T15:07:12.846Z,60.44
2018-03-23T15:09:40.378Z,62.04
2018-03-23T15:12:07.948Z,61.98
2018-03-23T15:14:35.444Z,62.87
2018-03-23T15:17:03.000Z,61.00
2018-03-23T15:19:30.542Z,60.27
2018-03-23T15:21:58.061Z,60.30
2018-03-23T15:24:25.606Z,61.29
2018-03-23T15:26:53.134Z,62.27
2018-03-23T15:29:20.658Z,63.67
2018-03-23T15:31:48.188Z,63.45
2018-03-23T15:34:15.712Z,60.47
2018-03-23T15:36:43.266Z,62.99
2018-03-23T15:39:10.784Z,60.57
2018-03-23T15:41:38.310Z,62.56
2018-03-23T15:44:05.846Z,61.46
2018-03-23T15:46:33.364Z,63.77
2018-03-23T15:49:00.908Z,62.83
2018-03-23T15:51:28.430Z,64.88
2018-03-23T15:53:56.009Z,61.20
2018-03-23T15:56:23.575Z,62.47
2018-03-23T15:58:51.077Z,61.74
2018-03-23T16:01:18.636Z,61.49
2018-03-23T16:03:46.160Z,61.97
2018-03-23T16:06:13.682Z,62.04
2018-03-23T16:08:41.208Z,63.06
2018-03-23T16:11:08.736Z,62.95
2018-03-23T16:13:36.253Z,63.67
2018-03-23T16:16:03.775Z,62.78
2018-03-23T16:18:31.346Z,62.16
2018-03-23T16:20:58.865Z,61.73
2018-03-23T16:23:26.384Z,63.50
2018-03-23T16:25:53.900Z,62.67
2018-03-23T16:28:21.423Z,65.46
2018-03-23T16:30:48.999Z,63.52
2018-03-23T16:33:16.513Z,65.69
2018-03-23T16:35:44.046Z,66.41
2018-03-23T16:38:11.582Z,66.69
2018-03-23T16:40:39.101Z,67.26
2018-03-23T16:43:06.623Z,67.36
2018-03-23T16:45:34.143Z,68.60
2018-03-23T16:48:01.774Z,68.91
2018-03-23T16:50:29.314Z,68.29
2018-03-23T16:52:56.834Z,68.25
2018-03-23T16:55:24.355Z,70.13
2018-03-23T16:57:51.874Z,69.45
2018-03-23T17:00:19.536Z,68.15
2018-03-23T17:02:47.072Z,68.12
2018-03-23T17:05:14.595Z,68.60
2018-03-23T17:07:43.019Z,68.51
2018-03-23T17:10:10.548Z,69.46
2018-03-23T17:12:38.151Z,71.23
2018-03-23T17:15:05.643Z,72.84
2018-03-23T17:17:33.192Z,71.63
2018-03-23T17:20:00.914Z,69.51
2018-03-23T17:22:28.798Z,67.21
2018-03-23T17:24:56.414Z,67.97
2018-03-23T17:27:24.232Z,67.53
2018-03-23T17:29:51.766Z,63.62
2018-03-23T17:32:19.290Z,65.58
2018-03-23T17:34:46.809Z,66.72
2018-03-23T17:37:14.804Z,68.13
2018-03-23T19:32:09.065Z,46.12
2018-03-23T19:34:37.390Z,47.16
2018-03-23T19:37:11.149Z,47.49
2018-03-23T19:51:00.001Z,44.88
2018-03-23T19:53:32.121Z,46.53
2018-03-23T20:22:11.392Z,41.59
2018-03-23T20:24:38.925Z,59.74
2018-03-23T20:27:11.979Z,67.90
2018-03-23T20:29:39.548Z,74.02
2018-03-23T20:32:13.335Z,76.84
2018-03-23T20:34:40.946Z,79.12
2018-03-23T20:37:08.658Z,79.81
2018-03-23T20:39:36.203Z,80.29
2018-03-23T20:42:03.764Z,81.41
2018-03-23T20:44:31.727Z,82.35
2018-03-23T20:46:59.281Z,82.40
2018-03-23T20:49:26.840Z,83.04
2018-03-23T20:51:54.655Z,82.44
2018-03-23T20:54:23.062Z,81.59
2018-03-23T20:56:50.611Z,81.21
2018-03-23T20:59:18.149Z,81.62
2018-03-23T21:01:45.741Z,81.01
2018-03-23T21:04:13.282Z,80.89
2018-03-23T21:06:41.679Z,81.28
2018-03-23T21:09:09.299Z,81.72
2018-03-23T21:11:36.831Z,81.80
2018-03-23T21:14:04.372Z,81.82
2018-03-23T21:16:32.670Z,82.22
2018-03-23T21:19:01.246Z,82.56
2018-03-23T21:21:28.779Z,82.80
2018-03-23T21:23:56.624Z,82.29
2018-03-23T21:26:24.166Z,81.93
2018-03-23T21:28:51.731Z,82.30
2018-03-23T21:31:19.293Z,81.88
2018-03-23T21:33:47.382Z,82.25
2018-03-23T21:36:14.891Z,82.26
2018-03-23T21:38:42.660Z,82.47
2018-03-23T21:41:10.189Z,82.53
2018-03-23T21:43:38.069Z,81.31
2018-03-23T21:46:05.628Z,81.43
2018-03-23T21:48:33.247Z,81.72
2018-03-23T21:51:01.045Z,81.46
2018-03-23T21:53:28.653Z,81.57
2018-03-23T21:55:56.212Z,80.87
2018-03-23T21:58:24.077Z,81.24
2018-03-23T22:00:51.872Z,81.90
2018-03-23T22:03:20.002Z,81.95
2018-03-23T22:05:47.641Z,81.73
2018-03-23T22:08:15.417Z,81.31
2018-03-23T22:10:42.992Z,80.61
2018-03-23T22:13:10.608Z,80.97
2018-03-23T22:15:38.130Z,80.88
2018-03-23T22:18:05.691Z,81.20
2018-03-23T22:20:33.860Z,80.55
2018-03-23T22:23:01.395Z,80.00
2018-03-23T22:25:29.891Z,80.80
2018-03-23T22:27:57.422Z,81.03
2018-03-23T22:30:25.095Z,80.53
2018-03-23T22:32:53.879Z,81.07
2018-03-23T22:35:21.445Z,81.70
2018-03-23T22:37:49.236Z,82.32
2018-03-23T22:40:16.835Z,82.41
2018-03-23T22:42:44.391Z,82.21
2018-03-23T22:45:11.999Z,82.18
2018-03-23T22:47:39.784Z,82.26
2018-03-23T22:50:08.841Z,82.75
2018-03-23T22:52:36.613Z,82.45
2018-03-23T22:55:04.180Z,82.26
2018-03-23T22:57:31.729Z,82.24
2018-03-23T22:59:59.482Z,82.44
2018-03-23T23:02:27.082Z,83.00
2018-03-23T23:04:54.640Z,82.61
2018-03-23T23:07:22.215Z,82.06
2018-03-23T23:09:49.839Z,81.83
2018-03-23T23:12:17.415Z,81.97
2018-03-23T23:14:45.007Z,82.33
2018-03-23T23:17:12.556Z,82.67
2018-03-23T23:19:40.125Z,83.14
2018-03-23T23:22:07.659Z,82.74
2018-03-23T23:24:35.186Z,82.42
2018-03-23T23:27:02.942Z,82.42
2018-03-23T23:29:30.487Z,82.33
2018-03-23T23:31:58.020Z,82.73
2018-03-23T23:34:25.568Z,82.64
2018-03-23T23:36:53.145Z,82.26
2018-03-23T23:39:20.685Z,81.49
2018-03-23T23:41:48.220Z,81.36
2018-03-23T23:44:15.977Z,81.56
2018-03-23T23:46:43.513Z,82.03
2018-03-23T23:49:11.737Z,81.53
2018-03-23T23:51:39.524Z,81.46
2018-03-23T23:54:07.280Z,82.03
2018-03-23T23:56:34.815Z,81.77
2018-03-23T23:59:02.602Z,82.63
